Time;durP1;ratioP1;P1;durP2;ratioP2;P2;SDS_P1;SDS_P2;PMS_P1;PMS_P2;Temp;Humidity;BMP_temperature;BMP_pressure;BME280_temperature;BME280_humidity;BME280_pressure;Samples;Min_cycle;Max_cycle;Signal;HPM_P1;HPM_P2
2021/07/15 00:00:31;;;;;;;0.43;0.43;;;;;;;21.42;69.18;101434.94;5015676;28;20103;-90
2021/07/15 00:03:02;;;;;;;0.70;0.70;;;;;;;21.44;69.22;101433.03;5023503;28;20030;-90
2021/07/15 00:05:30;;;;;;;0.10;0.10;;;;;;;21.39;69.23;101444.06;5021349;28;20033;-90
2021/07/15 00:07:57;;;;;;;1.48;1.38;;;;;;;21.38;69.35;101438.78;5019977;28;20029;-89
2021/07/15 00:10:34;;;;;;;0.90;0.90;;;;;;;21.31;69.58;101436.41;5015451;28;20112;-90
2021/07/15 00:13:00;;;;;;;1.25;1.25;;;;;;;21.24;69.83;101443.09;5021292;28;20022;-89
2021/07/15 00:15:28;;;;;;;1.85;1.55;;;;;;;21.36;69.61;101446.06;5014263;28;20030;-90
2021/07/15 00:17:56;;;;;;;0.95;0.70;;;;;;;21.27;69.67;101442.94;5014041;28;20033;-90
2021/07/15 00:20:24;;;;;;;0.40;0.40;;;;;;;21.13;70.17;101446.41;5018283;28;20555;-89
2021/07/15 00:23:11;;;;;;;0.85;0.85;;;;;;;21.35;69.41;101447.91;5021073;28;20038;-92
2021/07/15 00:25:40;;;;;;;1.25;1.05;;;;;;;21.25;69.83;101444.84;5012900;28;20029;-90
2021/07/15 00:28:06;;;;;;;1.00;0.82;;;;;;;21.29;69.39;101435.63;5018806;28;20113;-89
2021/07/15 00:30:33;;;;;;;0.75;0.75;;;;;;;21.27;69.53;101440.25;5017315;28;20073;-89
2021/07/15 00:33:01;;;;;;;3.53;3.28;;;;;;;21.34;69.33;101456.94;5018810;28;20576;-90
2021/07/15 00:35:27;;;;;;;2.10;2.00;;;;;;;21.25;69.47;101450.22;5017412;28;20104;-89
2021/07/15 00:37:57;;;;;;;1.90;1.75;;;;;;;21.20;69.93;101452.31;5016970;28;20026;-90
2021/07/15 00:40:25;;;;;;;0.82;0.82;;;;;;;21.11;70.24;101458.19;5016496;28;20388;-89
2021/07/15 00:42:52;;;;;;;0.57;0.57;;;;;;;21.05;70.46;101448.66;5013807;28;20069;-90
2021/07/15 00:45:19;;;;;;;0.70;0.47;;;;;;;21.23;69.60;101449.44;5015885;28;20604;-91
2021/07/15 00:47:47;;;;;;;4.93;1.20;;;;;;;21.19;69.79;101445.19;5018466;28;20417;-90
2021/07/15 00:50:25;;;;;;;0.57;0.38;;;;;;;21.22;69.53;101445.03;5015887;28;20105;-89
2021/07/15 00:52:59;;;;;;;6.07;1.58;;;;;;;21.16;69.97;101442.69;5016558;28;20148;-90
2021/07/15 00:55:37;;;;;;;0.52;0.52;;;;;;;21.13;70.12;101446.41;5013947;28;20037;-89
2021/07/15 00:58:11;;;;;;;0.65;0.65;;;;;;;21.12;70.01;101449.16;5016146;28;20030;-90
2021/07/15 01:00:40;;;;;;;0.85;0.85;;;;;;;21.05;70.06;101453.13;5013684;28;20084;-91
2021/07/15 01:03:09;;;;;;;2.38;1.10;;;;;;;21.03;70.36;101458.63;5015197;28;20053;-88
2021/07/15 01:05:40;;;;;;;0.88;0.63;;;;;;;21.07;70.24;101456.63;5020691;28;20030;-90
2021/07/15 01:08:07;;;;;;;0.28;0.28;;;;;;;21.00;70.59;101446.19;5016211;28;22086;-89
2021/07/15 01:10:35;;;;;;;0.28;0.28;;;;;;;20.99;70.21;101444.44;5019557;28;20033;-89
2021/07/15 01:13:12;;;;;;;0.13;0.13;;;;;;;21.15;69.81;101433.69;5025876;28;20032;-89
2021/07/15 01:15:53;;;;;;;0.38;0.38;;;;;;;21.08;69.97;101443.06;5015622;28;20042;-88
2021/07/15 01:18:40;;;;;;;0.45;0.45;;;;;;;21.10;70.04;101445.72;5012666;28;20040;-89
2021/07/15 01:24:51;;;;;;;0.57;0.50;;;;;;;21.08;70.03;101455.69;5069061;28;20390;-90
2021/07/15 01:35:54;;;;;;;0.65;0.65;;;;;;;20.90;70.65;101479.97;5061166;28;20890;-91
2021/07/15 01:38:24;;;;;;;0.60;0.60;;;;;;;20.96;70.43;101473.38;5047105;28;20044;-91
2021/07/15 01:41:03;;;;;;;0.35;0.35;;;;;;;21.10;69.78;101472.66;5047281;28;20029;-90
2021/07/15 01:43:38;;;;;;;1.27;1.27;;;;;;;21.16;69.80;101461.53;5048145;28;20057;-90
2021/07/15 01:46:06;;;;;;;1.85;1.17;;;;;;;21.05;70.16;101466.63;5044178;28;20131;-88
2021/07/15 01:48:33;;;;;;;0.30;0.30;;;;;;;21.00;70.23;101462.34;5043105;28;20040;-88
2021/07/15 01:51:00;;;;;;;2.13;2.03;;;;;;;21.13;69.58;101461.69;5045927;28;20155;-88
2021/07/15 01:53:27;;;;;;;0.10;0.10;;;;;;;20.94;70.26;101457.28;5048413;28;20037;-89
2021/07/15 01:55:56;;;;;;;0.77;0.77;;;;;;;21.04;69.93;101459.50;5047399;28;20025;-88
2021/07/15 01:58:29;;;;;;;1.85;1.75;;;;;;;20.95;70.26;101445.56;5047444;28;20039;-87
2021/07/15 02:00:58;;;;;;;0.43;0.43;;;;;;;20.92;70.21;101450.25;5047521;28;20124;-87
2021/07/15 02:03:26;;;;;;;0.50;0.50;;;;;;;21.00;70.25;101456.97;5047390;28;20494;-88
2021/07/15 02:05:55;;;;;;;0.75;0.75;;;;;;;20.92;70.46;101443.06;5045277;28;20471;-88
2021/07/15 02:08:23;;;;;;;1.30;1.20;;;;;;;20.92;70.28;101431.41;5042800;28;20032;-88
2021/07/15 02:10:51;;;;;;;2.22;2.13;;;;;;;20.99;69.95;101428.28;5047340;28;20040;-88
2021/07/15 02:13:18;;;;;;;0.95;0.95;;;;;;;20.92;70.35;101437.69;5045812;28;20060;-91
2021/07/15 02:15:46;;;;;;;0.95;0.95;;;;;;;20.99;70.20;101422.03;5045112;28;20034;-88
2021/07/15 02:18:16;;;;;;;0.63;0.63;;;;;;;20.69;71.15;101426.25;5047405;28;20032;-90
2021/07/15 02:20:54;;;;;;;0.28;0.28;;;;;;;21.03;70.04;101433.53;5047337;28;20052;-90
2021/07/15 02:23:28;;;;;;;0.90;0.90;;;;;;;20.92;70.50;101428.72;5044729;28;20032;-90
2021/07/15 02:25:57;;;;;;;11.30;2.72;;;;;;;20.89;70.24;101426.19;5046043;28;20014;-90
2021/07/15 02:28:30;;;;;;;0.90;0.90;;;;;;;20.85;70.65;101434.44;5047155;28;20480;-89
2021/07/15 02:31:06;;;;;;;1.85;1.75;;;;;;;20.92;70.44;101432.28;5047071;28;20061;-89
2021/07/15 02:33:36;;;;;;;2.13;0.57;;;;;;;20.84;70.56;101435.38;5044531;28;20456;-89
2021/07/15 02:36:09;;;;;;;0.80;0.80;;;;;;;20.97;70.39;101440.09;5046780;28;20037;-90
2021/07/15 02:38:37;;;;;;;1.10;1.10;;;;;;;20.86;70.64;101438.00;5044494;28;20022;-90
2021/07/15 02:41:04;;;;;;;2.15;2.05;;;;;;;20.76;70.81;101443.00;5046594;28;20037;-90
2021/07/15 02:43:30;;;;;;;0.80;0.80;;;;;;;20.85;70.74;101436.25;5046689;28;20108;-90
2021/07/15 02:46:02;;;;;;;3.25;0.63;;;;;;;20.84;70.88;101429.13;5036255;28;20072;-90
2021/07/15 02:48:31;;;;;;;1.65;1.63;;;;;;;20.75;71.11;101440.38;5026124;28;20030;-90
2021/07/15 02:50:58;;;;;;;1.60;1.55;;;;;;;20.85;70.77;101428.19;5030640;28;20031;-90
2021/07/15 02:53:26;;;;;;;3.45;2.53;;;;;;;20.68;71.27;101439.81;5032594;28;20132;-90
2021/07/15 02:56:22;;;;;;;0.75;0.75;;;;;;;20.86;70.54;101429.94;5030573;28;20037;-92
2021/07/15 02:59:03;;;;;;;0.50;0.50;;;;;;;20.67;71.40;101422.81;5034993;28;20025;-91
2021/07/15 03:01:37;;;;;;;0.30;0.30;;;;;;;20.72;71.14;101422.56;5024407;28;20383;-90
2021/07/15 03:07:09;;;;;;;0.60;0.60;;;;;;;20.82;70.75;101433.72;5088432;27;20387;-91
2021/07/15 03:09:38;;;;;;;0.22;0.22;;;;;;;20.67;71.02;101420.09;5063755;28;20793;-87
2021/07/15 03:12:13;;;;;;;4.53;2.75;;;;;;;20.80;70.87;101424.88;5066808;28;20108;-90
2021/07/15 03:14:44;;;;;;;1.15;1.15;;;;;;;20.73;71.38;101432.38;5066651;28;20029;-89
2021/07/15 03:17:14;;;;;;;0.20;0.20;;;;;;;20.58;71.56;101443.94;5065827;28;20120;-90
2021/07/15 03:19:44;;;;;;;1.08;1.00;;;;;;;20.66;71.28;101437.22;5068260;28;20043;-90
2021/07/15 03:22:14;;;;;;;3.38;2.30;;;;;;;20.80;70.62;101433.81;5064865;28;20017;-91
2021/07/15 03:24:52;;;;;;;1.05;1.00;;;;;;;20.58;71.50;101438.56;5065323;28;20036;-90
2021/07/15 03:27:19;;;;;;;1.73;1.65;;;;;;;20.49;71.91;101448.00;5064720;28;20447;-90
2021/07/15 03:29:49;;;;;;;4.13;3.22;;;;;;;20.59;71.46;101440.31;5067800;28;20028;-91
2021/07/15 03:32:17;;;;;;;0.88;0.88;;;;;;;20.54;71.75;101459.41;5065310;28;20021;-91
2021/07/15 03:34:45;;;;;;;2.65;1.70;;;;;;;20.76;70.81;101461.88;5067278;28;20029;-91
2021/07/15 03:37:14;;;;;;;0.17;0.17;;;;;;;20.64;71.55;101459.78;5067497;28;20037;-91
2021/07/15 03:39:40;;;;;;;0.70;0.70;;;;;;;20.78;70.76;101456.38;5063878;28;20033;-90
2021/07/15 03:42:12;;;;;;;0.20;0.20;;;;;;;20.71;71.09;101450.47;5067078;28;20078;-91
2021/07/15 03:44:39;;;;;;;1.83;1.73;;;;;;;20.76;71.03;101444.81;5065214;28;20032;-91
2021/07/15 03:47:13;;;;;;;2.58;2.40;;;;;;;20.81;70.94;101445.44;5065278;28;20035;-90
2021/07/15 03:49:43;;;;;;;1.27;1.27;;;;;;;20.80;70.78;101451.81;5065336;28;20027;-90
2021/07/15 03:52:24;;;;;;;1.45;0.65;;;;;;;20.60;71.62;101456.38;5067218;28;20024;-92
2021/07/15 03:54:52;;;;;;;1.02;1.02;;;;;;;20.61;71.40;101452.75;5066953;28;20475;-91
2021/07/15 03:57:20;;;;;;;1.27;1.17;;;;;;;20.60;71.45;101453.69;5063041;28;20051;-92
2021/07/15 03:59:51;;;;;;;0.82;0.52;;;;;;;20.80;70.92;101459.88;5067183;28;20029;-88
2021/07/15 04:02:21;;;;;;;1.02;0.63;;;;;;;20.67;71.21;101457.81;5064840;28;20032;-89
2021/07/15 04:04:57;;;;;;;0.77;0.60;;;;;;;20.74;71.14;101461.06;5066495;28;20029;-89
2021/07/15 04:07:26;;;;;;;0.10;0.10;;;;;;;20.50;71.64;101463.22;5065476;28;20444;-88
2021/07/15 04:09:54;;;;;;;0.52;0.52;;;;;;;20.79;70.78;101471.59;5062999;28;20368;-91
2021/07/15 04:12:23;;;;;;;0.38;0.38;;;;;;;20.72;71.00;101472.88;5066425;28;20031;-89
2021/07/15 04:15:18;;;;;;;1.77;1.67;;;;;;;20.69;71.12;101482.81;5064286;28;20028;-89
2021/07/15 04:17:50;;;;;;;0.85;0.80;;;;;;;20.80;70.53;101470.66;5055161;28;20120;-89
2021/07/15 04:20:19;;;;;;;6.13;2.88;;;;;;;20.65;71.29;101478.53;5050297;28;20037;-89
2021/07/15 04:22:47;;;;;;;0.10;0.10;;;;;;;20.69;70.93;101482.81;5053167;28;20043;-89
2021/07/15 04:25:17;;;;;;;2.50;2.22;;;;;;;20.77;70.67;101486.97;5050753;28;20059;-88
2021/07/15 04:27:44;;;;;;;0.30;0.30;;;;;;;20.83;70.41;101486.63;5053370;28;20124;-89
2021/07/15 04:30:11;;;;;;;1.25;1.25;;;;;;;20.82;70.42;101487.59;5051812;28;20021;-90
2021/07/15 04:32:59;;;;;;;0.15;0.15;;;;;;;20.82;70.67;101487.59;5050455;28;20021;-88
2021/07/15 04:35:27;;;;;;;1.58;0.98;;;;;;;20.72;70.57;101494.41;5051930;28;20098;-89
2021/07/15 04:37:55;;;;;;;0.32;0.32;;;;;;;20.50;71.36;101496.38;5050226;28;20057;-88
2021/07/15 04:40:24;;;;;;;0.47;0.47;;;;;;;20.79;70.34;101494.00;5052934;28;20020;-88
2021/07/15 04:42:56;;;;;;;0.75;0.75;;;;;;;20.53;71.05;101500.72;5049604;28;20104;-88
2021/07/15 04:45:25;;;;;;;0.17;0.17;;;;;;;20.71;70.40;101504.31;5052409;28;20060;-89
2021/07/15 04:47:53;;;;;;;0.60;0.60;;;;;;;20.75;70.17;101505.00;5052300;28;20373;-88
2021/07/15 04:50:24;;;;;;;0.20;0.20;;;;;;;20.66;70.42;101496.44;5050706;28;20168;-89
2021/07/15 04:52:56;;;;;;;0.60;0.60;;;;;;;20.66;70.62;101504.53;5052488;28;20043;-89
2021/07/15 04:55:24;;;;;;;0.25;0.25;;;;;;;20.55;70.51;101497.94;5052525;28;20111;-89
2021/07/15 04:57:53;;;;;;;0.43;0.43;;;;;;;20.68;70.28;101505.28;5051455;28;20075;-89
2021/07/15 05:00:25;;;;;;;1.50;0.88;;;;;;;20.63;70.34;101493.91;5052142;28;20021;-89
2021/07/15 05:05:42;;;;;;;1.15;1.05;;;;;;;20.64;70.17;101498.34;5069653;27;20842;-87
2021/07/15 05:08:08;;;;;;;0.30;0.30;;;;;;;20.62;70.35;101499.38;5059189;28;20037;-88
2021/07/15 05:10:34;;;;;;;0.65;0.65;;;;;;;20.80;69.71;101505.66;5045556;28;20476;-91
2021/07/15 05:13:02;;;;;;;0.40;0.40;;;;;;;20.84;69.72;101501.84;5047794;28;20079;-87
2021/07/15 05:15:28;;;;;;;0.47;0.47;;;;;;;20.77;69.35;101497.72;5042440;28;20099;-88
2021/07/15 05:17:54;;;;;;;3.22;2.17;;;;;;;20.79;69.11;101512.00;5042816;28;20022;-88
2021/07/15 05:20:20;;;;;;;0.20;0.20;;;;;;;20.76;69.38;101512.13;5042834;28;20025;-87
2021/07/15 05:22:47;;;;;;;1.38;0.57;;;;;;;20.66;69.76;101512.59;5045545;28;20029;-88
2021/07/15 05:25:13;;;;;;;0.75;0.75;;;;;;;20.82;69.10;101503.75;5041932;28;20102;-88
2021/07/15 05:27:39;;;;;;;0.50;0.50;;;;;;;20.96;68.88;101505.69;5046226;28;20112;-87
2021/07/15 05:30:06;;;;;;;0.30;0.30;;;;;;;20.92;69.07;101502.31;5047833;28;20033;-90
2021/07/15 05:32:33;;;;;;;0.20;0.20;;;;;;;20.93;68.58;101493.25;5043140;28;20080;-87
2021/07/15 05:35:33;;;;;;;0.35;0.35;;;;;;;21.02;68.83;101486.50;5043926;28;20109;-88
2021/07/15 05:37:58;;;;;;;1.00;0.73;;;;;;;20.94;68.78;101499.53;5040936;28;20040;-89
2021/07/15 05:40:25;;;;;;;0.75;0.75;;;;;;;20.98;68.50;101504.66;5038749;28;20033;-88
2021/07/15 05:42:54;;;;;;;0.40;0.40;;;;;;;21.15;68.11;101500.22;5043824;28;20026;-92
2021/07/15 05:45:20;;;;;;;0.30;0.30;;;;;;;21.10;68.46;101494.22;5045052;28;20379;-89
2021/07/15 05:47:47;;;;;;;0.10;0.10;;;;;;;21.05;67.93;101502.53;5046769;28;20038;-89
2021/07/15 05:50:13;;;;;;;0.30;0.30;;;;;;;21.13;67.90;101510.19;5044211;28;20049;-88
2021/07/15 05:52:39;;;;;;;0.10;0.10;;;;;;;21.20;67.56;101513.41;5041415;28;20025;-88
2021/07/15 05:55:06;;;;;;;0.20;0.20;;;;;;;21.10;67.91;101505.84;5044558;28;20634;-89
2021/07/15 05:57:33;;;;;;;0.30;0.30;;;;;;;21.08;67.77;101514.97;5044273;28;20032;-89
2021/07/15 06:00:00;;;;;;;1.00;1.00;;;;;;;21.00;67.16;101520.75;5042516;28;20104;-88
2021/07/15 06:02:26;;;;;;;0.25;0.25;;;;;;;21.04;67.58;101522.34;5038244;28;20492;-88
2021/07/15 06:04:52;;;;;;;0.77;0.77;;;;;;;21.00;67.37;101515.38;5037537;28;20133;-90
2021/07/15 06:07:19;;;;;;;0.52;0.52;;;;;;;21.03;67.38;101523.28;5040769;28;20056;-89
2021/07/15 06:09:45;;;;;;;0.93;0.93;;;;;;;21.13;67.00;101531.75;5041400;28;20029;-89
2021/07/15 06:12:11;;;;;;;1.50;1.38;;;;;;;21.10;67.12;101538.16;5045940;28;20487;-90
2021/07/15 06:14:37;;;;;;;1.38;1.27;;;;;;;21.06;67.00;101531.22;5043502;28;20488;-90
2021/07/15 06:17:08;;;;;;;1.90;1.75;;;;;;;21.24;66.74;101529.34;5029336;28;20033;-89
2021/07/15 06:19:35;;;;;;;0.30;0.30;;;;;;;21.09;66.64;101546.34;5028790;28;20049;-90
2021/07/15 06:22:33;;;;;;;0.60;0.60;;;;;;;21.13;66.40;101546.09;5023382;28;20026;-93
2021/07/15 06:24:59;;;;;;;0.93;0.90;;;;;;;21.00;66.78;101551.25;5025579;28;20144;-89
2021/07/15 06:27:25;;;;;;;0.70;0.70;;;;;;;21.01;66.58;101552.16;5031005;28;20033;-89
2021/07/15 06:29:51;;;;;;;0.20;0.20;;;;;;;21.07;66.59;101550.94;5029429;28;20079;-90
2021/07/15 06:32:21;;;;;;;1.30;1.20;;;;;;;21.14;66.32;101555.91;5030498;28;20095;-90
2021/07/15 06:34:47;;;;;;;0.90;0.90;;;;;;;20.92;66.79;101555.31;5024453;28;20025;-92
2021/07/15 06:37:13;;;;;;;0.40;0.40;;;;;;;21.17;66.31;101557.56;5022327;28;20049;-92
2021/07/15 06:39:41;;;;;;;0.68;0.68;;;;;;;21.06;66.21;101554.56;5024002;28;20053;-91
2021/07/15 06:42:07;;;;;;;0.40;0.40;;;;;;;20.99;66.41;101546.81;5027782;28;20026;-91
2021/07/15 06:44:34;;;;;;;4.03;3.03;;;;;;;20.84;66.85;101553.88;5021691;28;20431;-90
2021/07/15 06:47:04;;;;;;;0.85;0.85;;;;;;;21.13;66.29;101545.22;5027009;28;20041;-90
2021/07/15 06:49:30;;;;;;;0.32;0.32;;;;;;;21.12;66.19;101556.94;5020883;28;20544;-89
2021/07/15 06:51:57;;;;;;;0.20;0.20;;;;;;;21.12;66.13;101567.72;5020639;28;20049;-89
2021/07/15 06:54:24;;;;;;;3.50;0.90;;;;;;;21.12;66.11;101562.31;5022028;28;20091;-90
2021/07/15 06:56:50;;;;;;;0.50;0.50;;;;;;;21.28;65.51;101563.28;5022797;28;20503;-89
2021/07/15 06:59:16;;;;;;;1.30;0.85;;;;;;;21.26;65.79;101564.28;5025938;28;20485;-90
2021/07/15 07:01:43;;;;;;;0.20;0.20;;;;;;;21.21;65.56;101563.66;5021289;28;20033;-89
2021/07/15 07:04:09;;;;;;;0.35;0.35;;;;;;;21.07;65.52;101564.41;5029170;28;20045;-90
2021/07/15 07:06:35;;;;;;;1.60;1.50;;;;;;;21.03;65.57;101581.69;5027153;28;20030;-89
2021/07/15 07:09:02;;;;;;;1.55;1.35;;;;;;;21.21;65.30;101588.81;5026384;28;20029;-90
2021/07/15 07:11:31;;;;;;;0.20;0.20;;;;;;;21.09;65.31;101576.84;5027322;28;20033;-88
2021/07/15 07:14:03;;;;;;;1.45;1.38;;;;;;;21.26;65.22;101575.94;5024486;28;20440;-89
2021/07/15 07:16:29;;;;;;;0.20;0.20;;;;;;;21.31;64.91;101579.28;5019434;28;20117;-89
2021/07/15 07:19:02;;;;;;;0.20;0.20;;;;;;;21.18;64.92;101578.16;5020315;28;20116;-85
2021/07/15 07:21:32;;;;;;;0.70;0.70;;;;;;;21.32;64.83;101589.09;5019510;28;20026;-90
2021/07/15 07:23:59;;;;;;;0.60;0.60;;;;;;;21.22;64.83;101589.66;5017874;28;20378;-92
2021/07/15 07:26:25;;;;;;;1.05;1.05;;;;;;;21.36;64.54;101594.31;5027351;28;20036;-90
2021/07/15 07:28:52;;;;;;;0.63;0.55;;;;;;;21.28;64.72;101595.63;5022521;28;20018;-92
2021/07/15 07:31:20;;;;;;;1.05;1.02;;;;;;;21.32;64.64;101607.97;5014949;28;20056;-90
2021/07/15 07:33:46;;;;;;;4.40;1.58;;;;;;;21.22;64.44;101611.22;5014461;28;20040;-92
2021/07/15 07:36:13;;;;;;;0.47;0.30;;;;;;;21.17;64.50;101600.69;5014861;28;20107;-91
2021/07/15 07:38:39;;;;;;;0.10;0.10;;;;;;;21.48;63.95;101615.22;5014136;28;20029;-84
2021/07/15 07:41:06;;;;;;;0.20;0.20;;;;;;;21.42;63.98;101615.56;5028613;28;20045;-92
2021/07/15 07:43:32;;;;;;;0.40;0.40;;;;;;;21.61;63.62;101610.09;5014504;28;20464;-89
2021/07/15 07:46:00;;;;;;;1.65;0.95;;;;;;;21.56;63.68;101614.84;5014968;28;20388;-90
2021/07/15 07:48:26;;;;;;;0.32;0.32;;;;;;;21.38;63.61;101616.69;5027109;28;20488;-90
2021/07/15 07:50:53;;;;;;;0.55;0.55;;;;;;;21.68;63.22;101621.41;5026445;28;20052;-90
2021/07/15 07:53:22;;;;;;;1.60;1.50;;;;;;;21.63;63.20;101622.53;5025386;28;20037;-93
2021/07/15 07:55:48;;;;;;;2.30;0.90;;;;;;;21.75;62.78;101620.13;5023982;28;20159;-94
2021/07/15 07:58:14;;;;;;;0.73;0.73;;;;;;;21.68;63.13;101624.94;5019153;28;20195;-85
2021/07/15 08:00:40;;;;;;;1.13;1.02;;;;;;;21.67;62.99;101616.97;5026467;28;20476;-85
2021/07/15 08:03:06;;;;;;;0.10;0.10;;;;;;;21.52;63.33;101616.81;5022279;28;20029;-89
2021/07/15 08:05:37;;;;;;;0.73;0.73;;;;;;;21.67;62.73;101616.97;5022234;28;20038;-88
2021/07/15 08:08:04;;;;;;;0.20;0.20;;;;;;;21.52;63.05;101627.59;5030187;28;20049;-89
2021/07/15 08:10:30;;;;;;;0.17;0.17;;;;;;;21.74;62.99;101624.63;5015898;28;20104;-89
2021/07/15 08:12:57;;;;;;;0.38;0.38;;;;;;;21.56;63.06;101614.84;5013219;28;20552;-88
2021/07/15 08:15:23;;;;;;;0.10;0.10;;;;;;;21.80;62.76;101629.69;5013167;28;20038;-90
2021/07/15 08:17:49;;;;;;;0.20;0.20;;;;;;;21.58;63.30;101623.72;5020572;28;20026;-88
2021/07/15 08:20:15;;;;;;;0.50;0.50;;;;;;;21.48;63.23;101629.59;5030021;28;20029;-82
2021/07/15 08:22:42;;;;;;;0.65;0.57;;;;;;;21.61;62.56;101639.75;5019971;28;20029;-85
2021/07/15 08:25:13;;;;;;;0.75;0.75;;;;;;;21.84;62.31;101633.09;5017580;28;20089;-88
2021/07/15 08:27:39;;;;;;;1.63;1.55;;;;;;;21.85;62.46;101637.53;5019400;28;20091;-89
2021/07/15 08:30:07;;;;;;;0.47;0.47;;;;;;;21.91;62.28;101637.19;5047255;22;20484;-86
2021/07/15 08:32:34;;;;;;;1.77;1.65;;;;;;;21.95;61.92;101636.06;5032237;28;20091;-81
2021/07/15 08:35:00;;;;;;;0.10;0.10;;;;;;;22.08;61.68;101638.06;5020799;28;20032;-87
2021/07/15 08:37:26;;;;;;;0.20;0.20;;;;;;;22.02;62.00;101641.09;5033325;28;20431;-86
2021/07/15 08:39:53;;;;;;;0.10;0.10;;;;;;;22.09;61.83;101642.50;5004228;28;20088;-86
2021/07/15 08:42:19;;;;;;;1.15;0.43;;;;;;;22.25;61.58;101648.78;4990673;28;20087;-86
2021/07/15 08:44:46;;;;;;;0.00;0.00;;;;;;;21.94;61.53;101645.13;4985311;28;20030;-82
2021/07/15 08:47:15;;;;;;;0.28;0.28;;;;;;;21.98;61.70;101660.19;4984500;28;20114;-83
2021/07/15 08:49:41;;;;;;;1.02;1.02;;;;;;;22.03;61.33;101654.53;4991203;28;20527;-84
2021/07/15 08:52:07;;;;;;;2.90;1.85;;;;;;;22.14;61.41;101653.91;4992909;28;20114;-87
2021/07/15 08:54:48;;;;;;;2.72;1.17;;;;;;;22.19;61.39;101657.22;4995407;28;20034;-88
2021/07/15 08:57:14;;;;;;;0.10;0.10;;;;;;;22.20;61.35;101669.78;4981223;28;20022;-87
2021/07/15 08:59:40;;;;;;;0.10;0.10;;;;;;;21.97;61.09;101674.63;4992877;28;20042;-83
2021/07/15 09:02:08;;;;;;;0.38;0.38;;;;;;;22.22;60.91;101667.88;4993103;28;20026;-83
2021/07/15 09:04:34;;;;;;;0.10;0.10;;;;;;;21.94;60.88;101665.81;4997466;28;20049;-86
2021/07/15 09:07:01;;;;;;;0.30;0.30;;;;;;;22.17;60.56;101674.47;4981551;28;20105;-85
2021/07/15 09:09:28;;;;;;;0.40;0.40;;;;;;;22.24;60.59;101665.97;4996176;28;20049;-85
2021/07/15 09:11:54;;;;;;;0.85;0.85;;;;;;;22.28;60.49;101662.13;5009875;28;20030;-88
2021/07/15 09:14:22;;;;;;;0.10;0.10;;;;;;;22.39;60.40;101675.06;4997336;28;20062;-88
2021/07/15 09:19:27;;;;;;;0.68;0.68;;;;;;;22.43;60.43;101678.44;5086871;27;20411;-89
2021/07/15 09:22:06;;;;;;;0.45;0.45;;;;;;;22.64;60.26;101680.88;5084005;28;20024;-88
2021/07/15 09:24:38;;;;;;;1.02;0.98;;;;;;;22.56;59.96;101682.16;5075693;28;20127;-85
2021/07/15 09:27:23;;;;;;;0.25;0.25;;;;;;;22.74;59.85;101679.38;5072766;28;20025;-86
2021/07/15 09:30:10;;;;;;;0.80;0.80;;;;;;;22.64;59.94;101688.97;5074655;28;20028;-86
2021/07/15 09:32:57;;;;;;;2.08;0.80;;;;;;;22.57;59.47;101689.31;5072502;28;20176;-85
2021/07/15 09:35:29;;;;;;;0.30;0.30;;;;;;;22.56;59.71;101687.56;5072052;28;20064;-86
2021/07/15 09:38:06;;;;;;;0.30;0.30;;;;;;;22.44;59.89;101688.28;5078403;28;20035;-86
2021/07/15 09:40:55;;;;;;;0.10;0.10;;;;;;;22.57;59.90;101692.03;5080816;28;20024;-86
2021/07/15 09:49:06;;;;;;;5.32;1.17;;;;;;;22.58;59.66;101700.97;5116517;27;20404;-85
2021/07/15 09:51:42;;;;;;;0.47;0.47;;;;;;;22.70;59.78;101704.81;5103295;28;20040;-85
2021/07/15 09:54:09;;;;;;;2.30;0.35;;;;;;;22.48;59.68;101694.38;5108601;28;20474;-85
2021/07/15 09:56:44;;;;;;;0.30;0.30;;;;;;;22.75;59.49;101708.13;5108650;28;20024;-84
2021/07/15 09:59:11;;;;;;;0.10;0.10;;;;;;;22.67;59.84;101703.16;5113593;22;21859;-90
2021/07/15 10:01:53;;;;;;;1.20;1.10;;;;;;;22.70;59.96;101710.22;5047584;28;20053;-90
2021/07/15 10:04:26;;;;;;;0.30;0.30;;;;;;;22.73;59.75;101696.53;5046755;28;20055;-89
2021/07/15 10:10:49;;;;;;;0.82;0.82;;;;;;;22.53;59.78;101714.78;5070315;23;20120;-94
2021/07/15 10:19:23;;;;;;;0.40;0.40;;;;;;;22.68;59.55;101712.13;5066626;22;20045;-82
2021/07/15 10:22:34;;;;;;;0.28;0.28;;;;;;;22.73;60.75;101715.44;5044725;28;20029;-94
2021/07/15 10:25:05;;;;;;;0.30;0.30;;;;;;;22.53;61.14;101720.16;5011108;28;20484;-92
2021/07/15 10:27:32;;;;;;;0.35;0.35;;;;;;;22.29;62.91;101715.16;5043857;28;20033;-91
2021/07/15 10:30:00;;;;;;;0.50;0.50;;;;;;;22.12;63.93;101726.03;5044968;28;20464;-89
2021/07/15 10:32:27;;;;;;;0.20;0.20;;;;;;;21.91;64.58;101711.88;5050706;28;20029;-90
2021/07/15 10:34:54;;;;;;;0.63;0.63;;;;;;;21.79;65.03;101716.09;5052556;28;20028;-89
2021/07/15 10:37:21;;;;;;;0.63;0.63;;;;;;;21.59;66.11;101720.72;5046974;28;20063;-88
2021/07/15 10:39:49;;;;;;;0.90;0.45;;;;;;;21.55;65.27;101716.41;5047076;28;20041;-88
2021/07/15 10:42:15;;;;;;;0.45;0.45;;;;;;;21.51;66.29;101714.84;5046004;28;20024;-87
2021/07/15 10:44:48;;;;;;;0.50;0.50;;;;;;;21.47;65.85;101715.91;5050081;28;20487;-94
2021/07/15 10:47:15;;;;;;;0.10;0.10;;;;;;;21.42;67.22;101715.28;5048643;28;20077;-87
2021/07/15 10:49:42;;;;;;;2.28;2.08;;;;;;;21.48;66.01;101723.06;5048782;28;20029;-90
2021/07/15 10:52:10;;;;;;;0.20;0.20;;;;;;;21.39;67.09;101715.47;5048932;28;20083;-89
2021/07/15 10:54:43;;;;;;;0.63;0.63;;;;;;;21.29;67.67;101731.25;5050321;28;20025;-93
2021/07/15 10:57:11;;;;;;;2.05;1.10;;;;;;;21.27;67.08;101728.63;5033048;28;20120;-89
2021/07/15 10:59:37;;;;;;;1.00;0.73;;;;;;;21.19;68.00;101735.38;5038239;28;20022;-87
2021/07/15 11:02:25;;;;;;;0.90;0.90;;;;;;;21.19;67.63;101724.59;5038957;28;20030;-86
2021/07/15 11:04:53;;;;;;;0.35;0.35;;;;;;;21.16;67.71;101728.31;5036141;28;20121;-83
2021/07/15 11:10:35;;;;;;;1.52;1.42;;;;;;;21.20;67.55;101732.59;5102380;27;20458;-96
2021/07/15 11:13:08;;;;;;;0.10;0.10;;;;;;;20.95;68.04;101728.41;5094676;28;20054;-96
2021/07/15 11:15:54;;;;;;;0.38;0.38;;;;;;;21.04;67.87;101732.47;5092130;28;20039;-95
2021/07/15 11:21:36;;;;;;;0.50;0.50;;;;;;;21.12;68.03;101745.56;5083500;27;20417;-96
2021/07/15 11:26:47;;;;;;;2.92;1.85;;;;;;;21.17;67.79;101748.88;5091667;27;20548;-95
2021/07/15 11:29:14;;;;;;;0.68;0.68;;;;;;;21.19;67.85;101746.13;5068485;28;20033;-96
2021/07/15 11:31:51;;;;;;;0.90;0.90;;;;;;;21.29;67.76;101750.09;5051929;28;20379;-96
2021/07/15 11:37:37;;;;;;;0.30;0.30;;;;;;;21.40;67.56;101760.34;5174107;27;20398;-96
2021/07/15 11:40:43;;;;;;;0.30;0.30;;;;;;;21.48;67.19;101763.50;5173621;27;20040;-96
2021/07/15 11:46:20;;;;;;;1.25;1.15;;;;;;;21.69;67.56;101749.91;5091087;27;20440;-95
2021/07/15 11:51:37;;;;;;;0.85;0.82;;;;;;;21.73;67.00;101756.88;5050987;27;20391;-95
2021/07/15 11:59:43;;;;;;;0.77;0.77;;;;;;;21.91;66.50;101769.38;5085299;27;20473;-96
2021/07/15 12:05:28;;;;;;;1.27;1.25;;;;;;;22.12;66.06;101764.66;5092792;28;20418;-96
2021/07/15 12:08:15;;;;;;;0.32;0.32;;;;;;;22.27;65.80;101762.97;5071899;28;20032;-96
2021/07/15 12:10:44;;;;;;;0.50;0.43;;;;;;;22.23;65.81;101766.78;5055657;28;20495;-96
2021/07/15 12:13:13;;;;;;;0.20;0.20;;;;;;;22.17;65.59;101764.44;5052272;28;20484;-96
2021/07/15 12:15:43;;;;;;;0.40;0.40;;;;;;;22.19;65.73;101773.28;5052448;28;20026;-94
2021/07/15 12:20:58;;;;;;;0.10;0.10;;;;;;;22.24;65.22;101771.25;5111288;27;20388;-96
2021/07/15 12:26:09;;;;;;;0.68;0.68;;;;;;;22.17;64.64;101775.22;5091059;27;20430;-96
2021/07/15 12:28:35;;;;;;;1.13;1.13;;;;;;;22.25;64.74;101770.25;5071466;28;20056;-95
2021/07/15 12:31:05;;;;;;;1.23;1.13;;;;;;;22.47;64.81;101766.44;5052240;28;20036;-94
2021/07/15 12:33:49;;;;;;;0.88;0.85;;;;;;;22.61;64.32;101765.63;5051051;28;20029;-93
2021/07/15 12:39:01;;;;;;;0.20;0.20;;;;;;;22.52;62.98;101771.53;5089272;27;20786;-94
2021/07/15 12:41:32;;;;;;;1.38;0.52;;;;;;;22.75;63.08;101772.97;5070785;28;20033;-95
2021/07/15 12:44:01;;;;;;;2.95;1.20;;;;;;;22.81;63.23;101778.00;5072706;28;20029;-95
2021/07/15 12:46:29;;;;;;;1.00;0.68;;;;;;;22.81;62.56;101778.00;5072772;28;20029;-94
2021/07/15 12:49:00;;;;;;;2.83;2.38;;;;;;;22.87;62.77;101783.06;5090751;28;20025;-93